createdAt,value
2023-08-11T00:00:07.850Z,8.00
2023-08-11T00:00:29.158Z,8.20
2023-08-11T00:00:50.257Z,8.00
2023-08-11T00:01:11.349Z,7.10
2023-08-11T00:01:32.399Z,8.30
2023-08-11T00:01:53.511Z,6.50
2023-08-11T00:02:14.569Z,7.90
2023-08-11T00:02:35.660Z,8.00
2023-08-11T00:02:56.760Z,7.30
2023-08-11T00:03:17.891Z,7.30
2023-08-11T00:03:38.989Z,7.70
2023-08-11T00:04:00.097Z,8.50
2023-08-11T00:04:21.157Z,6.80
2023-08-11T00:04:42.230Z,8.50
2023-08-11T00:05:03.281Z,8.20
2023-08-11T00:05:24.391Z,7.60
2023-08-11T00:05:45.719Z,8.10
2023-08-11T00:06:07.176Z,8.70
2023-08-11T00:06:28.248Z,8.40
2023-08-11T00:06:49.334Z,8.60
2023-08-11T00:07:10.530Z,6.70
2023-08-11T00:07:31.685Z,7.10
2023-08-11T00:07:52.749Z,7.00
2023-08-11T00:08:13.850Z,7.20
2023-08-11T00:08:34.922Z,6.70
2023-08-11T00:08:55.979Z,6.30
2023-08-11T00:09:17.037Z,6.80
2023-08-11T00:09:38.121Z,6.50
2023-08-11T00:09:59.347Z,7.30
2023-08-11T00:10:20.422Z,7.70
2023-08-11T00:10:41.692Z,6.80
2023-08-11T00:11:02.837Z,6.40
2023-08-11T00:11:23.918Z,7.70
2023-08-11T00:11:44.985Z,7.60
2023-08-11T00:12:06.070Z,5.90
2023-08-11T00:12:27.136Z,6.50
2023-08-11T00:12:48.230Z,7.10
2023-08-11T00:13:09.312Z,8.50
2023-08-11T00:13:30.380Z,8.30
2023-08-11T00:13:51.485Z,7.90
2023-08-11T00:14:12.544Z,6.80
2023-08-11T00:14:33.625Z,7.60
2023-08-11T00:14:54.692Z,7.40
2023-08-11T00:15:15.779Z,8.00
2023-08-11T00:15:36.843Z,6.80
2023-08-11T00:15:58.138Z,6.70
2023-08-11T00:16:19.303Z,7.30
2023-08-11T00:16:40.392Z,6.90
2023-08-11T00:17:01.477Z,7.80
2023-08-11T00:17:22.519Z,8.40
2023-08-11T00:17:43.624Z,7.90
2023-08-11T00:18:04.684Z,7.30
2023-08-11T00:18:25.750Z,7.00
2023-08-11T00:18:47.099Z,6.20
2023-08-11T00:19:08.160Z,6.50
2023-08-11T00:19:29.233Z,7.10
2023-08-11T00:19:50.281Z,7.60
2023-08-11T00:20:11.335Z,6.50
2023-08-11T00:20:32.399Z,6.50
2023-08-11T00:20:53.466Z,6.80
2023-08-11T00:21:14.620Z,7.90
2023-08-11T00:21:35.724Z,7.90
2023-08-11T00:21:56.801Z,6.60
2023-08-11T00:22:17.867Z,8.10
2023-08-11T00:22:38.945Z,7.80
2023-08-11T00:22:59.996Z,6.80
2023-08-11T00:23:21.054Z,6.70
2023-08-11T00:23:42.128Z,7.90
2023-08-11T00:24:03.190Z,7.30
2023-08-11T00:24:24.253Z,8.20
2023-08-11T00:24:45.309Z,9.20
2023-08-11T00:25:06.415Z,7.20
2023-08-11T00:25:27.463Z,7.00
2023-08-11T00:25:48.537Z,7.20
2023-08-11T00:26:09.602Z,8.10
2023-08-11T00:26:30.703Z,7.80
2023-08-11T00:26:51.810Z,6.90
2023-08-11T00:27:12.861Z,8.90
2023-08-11T00:27:33.930Z,9.50
2023-08-11T00:27:54.990Z,8.80
2023-08-11T00:28:16.041Z,7.70
2023-08-11T00:28:37.110Z,6.70
2023-08-11T00:28:58.196Z,6.80
2023-08-11T00:29:19.281Z,8.70
2023-08-11T00:29:40.392Z,8.00
2023-08-11T00:30:01.431Z,8.10
2023-08-11T00:30:22.488Z,7.60
2023-08-11T00:30:43.550Z,6.30
2023-08-11T00:31:04.654Z,6.00
2023-08-11T00:31:25.828Z,8.00
2023-08-11T00:31:46.985Z,6.70
2023-08-11T00:32:08.253Z,6.80
2023-08-11T00:32:29.333Z,7.70
2023-08-11T00:32:50.399Z,8.20
2023-08-11T00:33:11.479Z,8.80
2023-08-11T00:33:32.570Z,7.90
2023-08-11T00:33:53.624Z,8.10
2023-08-11T00:34:14.719Z,7.40
2023-08-11T00:34:35.772Z,7.60
2023-08-11T00:34:56.854Z,7.20
2023-08-11T00:35:17.905Z,7.10
2023-08-11T00:35:38.986Z,6.80
2023-08-11T00:36:00.060Z,8.00
2023-08-11T00:36:21.101Z,7.10
2023-08-11T00:36:42.184Z,6.40
2023-08-11T00:37:24.449Z,8.40
2023-08-11T00:37:45.560Z,7.50
2023-08-11T00:38:06.633Z,5.90
2023-08-11T00:38:27.697Z,8.10
2023-08-11T00:38:48.751Z,8.50
2023-08-11T00:39:09.818Z,7.70
2023-08-11T00:39:30.871Z,7.40
2023-08-11T00:39:51.923Z,8.50
2023-08-11T00:40:12.995Z,8.70
2023-08-11T00:40:34.045Z,8.00
2023-08-11T00:40:55.113Z,7.50
2023-08-11T00:41:16.169Z,7.60
2023-08-11T00:41:37.253Z,8.00
2023-08-11T00:41:58.313Z,7.70
2023-08-11T00:42:19.370Z,7.00
2023-08-11T00:42:40.506Z,7.30
2023-08-11T00:43:01.798Z,7.70
2023-08-11T00:43:22.864Z,6.70
2023-08-11T00:43:43.923Z,6.40
2023-08-11T00:44:05.028Z,7.40
2023-08-11T00:44:26.052Z,7.20
2023-08-11T00:44:47.122Z,7.60
2023-08-11T00:45:08.182Z,6.60
2023-08-11T00:45:29.279Z,6.50
2023-08-11T00:45:50.532Z,7.80
2023-08-11T00:46:11.742Z,7.50
2023-08-11T00:46:32.880Z,7.10
2023-08-11T00:46:53.942Z,7.10
2023-08-11T00:47:15.073Z,8.70
2023-08-11T00:47:36.135Z,7.30
2023-08-11T00:47:57.384Z,7.00
2023-08-11T00:48:18.637Z,7.40
2023-08-11T00:48:39.800Z,7.60
2023-08-11T00:49:00.889Z,6.70
2023-08-11T00:49:21.968Z,6.20
2023-08-11T00:49:43.035Z,7.20
2023-08-11T00:50:04.105Z,8.30
2023-08-11T00:50:25.171Z,8.40
2023-08-11T00:50:46.230Z,8.00
2023-08-11T00:51:07.286Z,7.50
2023-08-11T00:51:28.359Z,7.10
2023-08-11T00:51:49.422Z,6.20
2023-08-11T00:52:10.483Z,5.70
2023-08-11T00:52:31.560Z,6.20
2023-08-11T00:52:52.646Z,7.90
2023-08-11T00:53:13.747Z,7.40
2023-08-11T00:53:35.013Z,7.40
2023-08-11T00:53:56.071Z,6.80
2023-08-11T00:54:17.124Z,7.90
2023-08-11T00:54:38.191Z,7.30
2023-08-11T00:54:59.264Z,8.50
2023-08-11T00:55:20.339Z,8.60
2023-08-11T00:55:41.392Z,7.00
2023-08-11T00:56:02.460Z,7.00
2023-08-11T00:56:23.511Z,8.60
2023-08-11T00:56:44.606Z,7.00
2023-08-11T00:57:05.944Z,7.10
2023-08-11T00:57:27.163Z,7.30
2023-08-11T00:57:48.220Z,6.70
2023-08-11T00:58:09.274Z,6.90
2023-08-11T00:58:30.381Z,6.80
2023-08-11T00:58:51.479Z,7.10
2023-08-11T00:59:12.542Z,6.80
2023-08-11T00:59:33.602Z,8.80
2023-08-11T00:59:54.699Z,8.10
2023-08-11T01:00:15.768Z,8.20
2023-08-11T01:00:36.891Z,8.50
2023-08-11T01:00:58.009Z,8.40
2023-08-11T01:01:19.069Z,7.50
2023-08-11T01:01:40.121Z,7.50
2023-08-11T01:02:01.274Z,6.20
2023-08-11T01:02:22.396Z,6.80
2023-08-11T01:02:43.931Z,6.60
2023-08-11T01:03:05.204Z,7.20
2023-08-11T01:03:26.305Z,7.50
2023-08-11T01:03:47.384Z,7.40
2023-08-11T01:04:08.680Z,7.20
2023-08-11T01:04:29.726Z,6.40
2023-08-11T01:04:50.788Z,7.60
2023-08-11T01:05:11.849Z,7.90
2023-08-11T01:05:32.919Z,6.60
2023-08-11T01:05:54.024Z,6.90
2023-08-11T01:06:15.081Z,9.00
2023-08-11T01:06:36.142Z,7.60
2023-08-11T01:06:57.206Z,7.40
2023-08-11T01:07:18.262Z,7.30
2023-08-11T01:07:39.344Z,7.10
2023-08-11T01:08:00.409Z,6.00
2023-08-11T01:08:21.490Z,6.30
2023-08-11T01:08:42.526Z,7.20
2023-08-11T01:09:03.612Z,8.60
2023-08-11T01:09:24.719Z,6.90
2023-08-11T01:09:45.796Z,7.00
2023-08-11T01:10:06.849Z,6.60
2023-08-11T01:10:27.904Z,7.40
2023-08-11T01:10:48.972Z,7.30
2023-08-11T01:11:10.022Z,6.60
2023-08-11T01:11:31.117Z,7.40
2023-08-11T01:11:52.174Z,7.10
2023-08-11T01:12:13.265Z,6.90
2023-08-11T01:12:34.329Z,7.80
2023-08-11T01:12:55.473Z,6.80
2023-08-11T01:13:16.541Z,6.50
2023-08-11T01:13:37.597Z,7.40
2023-08-11T01:13:58.674Z,7.70
2023-08-11T01:14:19.818Z,8.10
2023-08-11T01:14:41.097Z,7.00
2023-08-11T01:15:02.206Z,6.90
2023-08-11T01:15:23.287Z,6.60
2023-08-11T01:15:44.308Z,6.50
2023-08-11T01:16:05.379Z,6.80
2023-08-11T01:16:26.440Z,6.50
2023-08-11T01:16:47.533Z,7.90
2023-08-11T01:17:08.795Z,9.40
2023-08-11T01:17:30.096Z,7.80
2023-08-11T01:17:51.192Z,7.30
2023-08-11T01:18:12.230Z,7.80
2023-08-11T01:18:33.290Z,7.00
2023-08-11T01:18:54.347Z,8.20
2023-08-11T01:19:15.417Z,7.00
2023-08-11T01:19:36.680Z,6.30
2023-08-11T01:19:57.774Z,7.40
2023-08-11T01:20:18.830Z,6.80
2023-08-11T01:20:39.901Z,7.80
2023-08-11T01:21:00.952Z,7.80
2023-08-11T01:21:22.012Z,6.40
2023-08-11T01:21:43.076Z,7.70
2023-08-11T01:22:04.154Z,7.40
2023-08-11T01:22:25.223Z,5.80
2023-08-11T01:22:46.278Z,6.80
2023-08-11T01:23:07.355Z,7.40
2023-08-11T01:23:28.433Z,6.90
2023-08-11T01:23:49.468Z,7.20
2023-08-11T01:24:10.556Z,8.00
2023-08-11T01:24:31.605Z,6.60
2023-08-11T01:24:52.756Z,7.90
2023-08-11T01:25:14.045Z,7.50
2023-08-11T01:25:35.114Z,6.80
2023-08-11T01:25:56.169Z,6.30
2023-08-11T01:26:17.340Z,6.80
2023-08-11T01:26:38.405Z,6.80
2023-08-11T01:26:59.453Z,7.70
2023-08-11T01:27:20.515Z,7.10
2023-08-11T01:27:41.601Z,7.40
2023-08-11T01:28:02.659Z,6.80
2023-08-11T01:28:23.715Z,6.90
2023-08-11T01:28:44.783Z,5.90
2023-08-11T01:29:05.837Z,6.40
2023-08-11T01:29:26.911Z,7.00
2023-08-11T01:29:47.969Z,7.20
2023-08-11T01:30:09.174Z,12.60
2023-08-11T01:30:30.257Z,11.50
2023-08-11T01:30:51.339Z,7.80
2023-08-11T01:31:12.484Z,8.20
2023-08-11T01:31:33.523Z,7.30
2023-08-11T01:31:54.598Z,7.00
2023-08-11T01:32:15.701Z,8.80
2023-08-11T01:32:36.786Z,8.70
2023-08-11T01:32:57.846Z,6.30
2023-08-11T01:33:18.910Z,5.30
2023-08-11T01:33:39.974Z,6.40
2023-08-11T01:34:01.051Z,8.00
2023-08-11T01:34:22.103Z,8.10
2023-08-11T01:34:43.201Z,7.60
2023-08-11T01:35:04.267Z,6.90
2023-08-11T01:35:39.976Z,5.50
2023-08-11T01:35:52.738Z,6.90
2023-08-11T01:36:13.785Z,6.90
2023-08-11T01:36:34.855Z,7.00
2023-08-11T01:36:55.950Z,6.40
2023-08-11T01:37:17.033Z,6.60
2023-08-11T01:37:38.103Z,7.30
2023-08-11T01:37:59.148Z,6.70
2023-08-11T01:38:20.214Z,6.80
2023-08-11T01:38:41.279Z,7.90
2023-08-11T01:39:02.379Z,7.10
2023-08-11T01:39:23.444Z,6.60
2023-08-11T01:39:44.509Z,6.50
2023-08-11T01:40:05.621Z,6.30
2023-08-11T01:40:26.916Z,6.50
2023-08-11T01:40:48.206Z,7.00
2023-08-11T01:41:09.274Z,6.00
2023-08-11T01:41:30.321Z,6.70
2023-08-11T01:41:51.397Z,7.10
2023-08-11T01:42:12.464Z,7.50
2023-08-11T01:42:37.666Z,7.10
2023-08-11T01:43:00.521Z,6.80
2023-08-11T01:43:21.566Z,8.90
2023-08-11T01:43:42.637Z,7.20
2023-08-11T01:44:03.698Z,6.20
2023-08-11T01:44:24.784Z,6.10
2023-08-11T01:44:45.841Z,6.70
2023-08-11T01:45:06.912Z,6.60
2023-08-11T01:45:28.007Z,6.40
2023-08-11T01:45:49.107Z,6.00
2023-08-11T01:46:10.178Z,5.80
2023-08-11T01:46:31.346Z,6.40
2023-08-11T01:46:52.402Z,6.20
2023-08-11T01:47:13.436Z,6.50
2023-08-11T01:47:34.530Z,7.50
2023-08-11T01:47:55.703Z,7.00
2023-08-11T01:48:16.772Z,7.60
2023-08-11T01:48:37.847Z,7.40
2023-08-11T01:48:58.974Z,6.50
2023-08-11T01:49:20.065Z,7.30
2023-08-11T01:49:41.119Z,7.30
2023-08-11T01:50:02.188Z,6.10
2023-08-11T01:50:23.251Z,7.20
2023-08-11T01:50:44.393Z,7.20
2023-08-11T01:51:05.480Z,7.90
2023-08-11T01:51:26.561Z,7.20
2023-08-11T01:51:47.645Z,7.10
2023-08-11T01:52:08.692Z,6.70
2023-08-11T01:52:29.758Z,8.10
2023-08-11T01:52:50.825Z,8.20
2023-08-11T01:53:11.890Z,6.40
2023-08-11T01:53:32.951Z,5.90
2023-08-11T01:53:54.041Z,8.20
2023-08-11T01:54:15.098Z,7.00
2023-08-11T01:54:36.166Z,6.00
2023-08-11T01:54:57.241Z,7.20
2023-08-11T01:55:18.334Z,7.20
2023-08-11T01:55:39.420Z,8.10
2023-08-11T01:56:00.536Z,7.50
2023-08-11T01:56:21.638Z,6.60
2023-08-11T01:56:42.714Z,7.20
2023-08-11T01:57:03.825Z,6.60
2023-08-11T01:57:24.884Z,6.10
2023-08-11T01:57:57.707Z,6.60
2023-08-11T01:58:12.914Z,7.30
2023-08-11T01:58:33.979Z,6.70
2023-08-11T01:58:55.040Z,5.70
2023-08-11T01:59:16.116Z,6.60
2023-08-11T01:59:37.166Z,6.80
2023-08-11T01:59:58.224Z,7.00
2023-08-11T02:00:19.303Z,6.40
2023-08-11T02:00:40.374Z,5.70
2023-08-11T02:01:01.663Z,6.20
2023-08-11T02:01:22.781Z,6.40
2023-08-11T02:01:43.913Z,6.50
2023-08-11T02:02:04.987Z,7.00
2023-08-11T02:02:26.038Z,6.80
2023-08-11T02:02:47.180Z,7.90
2023-08-11T02:03:08.332Z,8.30
2023-08-11T02:03:29.500Z,6.20
2023-08-11T02:03:50.684Z,7.30
2023-08-11T02:04:11.817Z,7.50
2023-08-11T02:04:32.903Z,9.20
2023-08-11T02:04:53.975Z,6.70
2023-08-11T02:05:15.034Z,7.60
2023-08-11T02:05:36.085Z,6.50
2023-08-11T02:05:57.153Z,8.60
2023-08-11T02:06:18.453Z,7.80
2023-08-11T02:06:39.684Z,5.90
2023-08-11T02:07:00.770Z,6.80
2023-08-11T02:07:21.830Z,6.50
2023-08-11T02:07:42.898Z,7.30
2023-08-11T02:08:03.977Z,6.80
2023-08-11T02:08:25.040Z,6.50
2023-08-11T02:08:46.091Z,6.00
2023-08-11T02:09:07.149Z,5.80
2023-08-11T02:09:28.219Z,6.80
2023-08-11T02:09:49.283Z,7.10
2023-08-11T02:10:10.343Z,7.30
2023-08-11T02:10:31.406Z,6.60
2023-08-11T02:10:52.458Z,6.80
2023-08-11T02:11:13.517Z,6.70
2023-08-11T02:11:34.625Z,5.90
2023-08-11T02:11:55.901Z,7.20
2023-08-11T02:12:16.967Z,7.20
2023-08-11T02:12:38.027Z,7.50
2023-08-11T02:12:59.110Z,7.60
2023-08-11T02:13:20.151Z,7.70
2023-08-11T02:13:41.215Z,6.40
2023-08-11T02:14:02.272Z,7.20
2023-08-11T02:14:23.336Z,7.40
2023-08-11T02:14:44.395Z,8.60
2023-08-11T02:15:05.455Z,9.80
2023-08-11T02:15:26.514Z,7.40
2023-08-11T02:15:47.606Z,7.00
2023-08-11T02:16:08.691Z,6.70
2023-08-11T02:16:29.855Z,7.50
2023-08-11T02:16:51.143Z,7.20
2023-08-11T02:17:12.403Z,7.90
2023-08-11T02:17:33.521Z,7.80
2023-08-11T02:17:54.642Z,6.40
2023-08-11T02:18:15.841Z,6.60
2023-08-11T02:18:36.876Z,7.80
2023-08-11T02:18:57.937Z,8.80
2023-08-11T02:19:19.007Z,6.60
2023-08-11T02:19:40.072Z,7.20
2023-08-11T02:20:01.174Z,6.40
2023-08-11T02:20:22.403Z,7.20
2023-08-11T02:20:43.685Z,7.50
2023-08-11T02:21:04.753Z,7.50
2023-08-11T02:21:25.807Z,6.90
2023-08-11T02:21:46.881Z,6.80
2023-08-11T02:22:08.162Z,7.00
2023-08-11T02:22:29.292Z,6.50
2023-08-11T02:22:50.422Z,6.80
2023-08-11T02:23:11.513Z,5.70
2023-08-11T02:23:32.585Z,7.00
2023-08-11T02:23:53.641Z,7.80
2023-08-11T02:24:14.696Z,8.00
2023-08-11T02:24:35.770Z,6.40
2023-08-11T02:24:56.840Z,6.90
2023-08-11T02:25:17.928Z,7.20
2023-08-11T02:25:39.086Z,6.90
2023-08-11T02:26:00.165Z,7.20
2023-08-11T02:26:21.278Z,6.40
2023-08-11T02:26:42.365Z,7.70
2023-08-11T02:27:03.430Z,9.40
2023-08-11T02:27:24.742Z,8.30
2023-08-11T02:27:46.025Z,6.60
2023-08-11T02:28:07.083Z,7.10
2023-08-11T02:28:28.144Z,6.00
2023-08-11T02:28:49.214Z,6.90
2023-08-11T02:29:10.280Z,7.90
2023-08-11T02:29:31.341Z,7.00
2023-08-11T02:29:52.413Z,6.20
2023-08-11T02:30:13.475Z,6.90
2023-08-11T02:30:34.530Z,7.20
2023-08-11T02:30:55.625Z,6.80
2023-08-11T02:31:16.693Z,5.70
2023-08-11T02:31:37.798Z,6.40
2023-08-11T02:31:58.865Z,7.00
2023-08-11T02:32:19.915Z,7.10
2023-08-11T02:32:41.263Z,7.30
2023-08-11T02:33:02.392Z,7.20
2023-08-11T02:33:23.583Z,8.10
2023-08-11T02:33:44.620Z,7.50
2023-08-11T02:34:05.664Z,6.50
2023-08-11T02:34:26.733Z,7.30
2023-08-11T02:34:47.812Z,6.50
2023-08-11T02:35:08.934Z,9.10
2023-08-11T02:35:29.992Z,7.20
2023-08-11T02:35:51.050Z,8.90
2023-08-11T02:36:12.119Z,7.60
2023-08-11T02:36:33.185Z,6.10
2023-08-11T02:36:54.237Z,7.20
2023-08-11T02:37:15.305Z,7.10
2023-08-11T02:37:36.365Z,6.70
2023-08-11T02:37:57.469Z,6.40
2023-08-11T02:38:18.553Z,7.60
2023-08-11T02:38:39.625Z,7.20
2023-08-11T02:39:00.693Z,7.10
2023-08-11T02:39:21.745Z,7.20
2023-08-11T02:39:42.829Z,7.00
2023-08-11T02:40:03.876Z,8.30
2023-08-11T02:40:24.956Z,9.00
2023-08-11T02:40:46.010Z,7.40
2023-08-11T02:41:07.087Z,7.40
2023-08-11T02:41:28.138Z,8.20
2023-08-11T02:41:49.192Z,7.30
2023-08-11T02:42:10.363Z,5.90
2023-08-11T02:42:31.473Z,8.30
2023-08-11T02:42:52.539Z,8.70
2023-08-11T02:43:13.809Z,6.70
2023-08-11T02:43:34.899Z,7.10
2023-08-11T02:43:55.972Z,7.90
2023-08-11T02:44:17.047Z,7.80
2023-08-11T02:44:38.104Z,6.20
2023-08-11T02:44:59.164Z,7.10
2023-08-11T02:45:20.227Z,7.80
2023-08-11T02:45:41.329Z,7.40
2023-08-11T02:46:02.439Z,7.70
2023-08-11T02:46:23.562Z,7.40
2023-08-11T02:46:44.638Z,7.30
2023-08-11T02:47:05.705Z,8.20
2023-08-11T02:47:26.862Z,7.40
2023-08-11T02:47:47.927Z,8.30
2023-08-11T02:48:08.982Z,8.10
2023-08-11T02:48:30.287Z,6.50
2023-08-11T02:48:51.548Z,5.30
2023-08-11T02:49:12.653Z,5.90
2023-08-11T02:49:33.729Z,7.50
2023-08-11T02:49:54.854Z,6.60
2023-08-11T02:50:15.972Z,6.80
2023-08-11T02:50:37.040Z,7.80
2023-08-11T02:50:58.098Z,7.70
2023-08-11T02:51:19.161Z,7.50
2023-08-11T02:51:40.218Z,7.70
2023-08-11T02:52:01.284Z,6.70
2023-08-11T02:52:22.351Z,6.70
2023-08-11T02:52:43.417Z,7.00
2023-08-11T02:53:04.472Z,7.20
2023-08-11T02:53:25.527Z,7.40
2023-08-11T02:53:46.698Z,6.10
2023-08-11T02:54:08.036Z,6.80
2023-08-11T02:54:29.100Z,6.60
2023-08-11T02:54:50.165Z,7.40
2023-08-11T02:55:11.212Z,6.50
2023-08-11T02:55:32.291Z,6.70
2023-08-11T02:55:53.345Z,6.30
2023-08-11T02:56:14.417Z,6.90
2023-08-11T02:56:35.484Z,6.90
2023-08-11T02:56:56.536Z,6.60
2023-08-11T02:57:17.611Z,6.40
2023-08-11T02:57:38.660Z,7.10
2023-08-11T02:57:59.734Z,7.10
2023-08-11T02:58:20.809Z,8.20
2023-08-11T02:58:41.864Z,7.50
2023-08-11T02:59:03.166Z,9.00
2023-08-11T02:59:24.430Z,9.40
2023-08-11T02:59:45.496Z,8.80
2023-08-11T03:00:06.583Z,8.90
2023-08-11T03:00:27.621Z,9.40
2023-08-11T03:00:48.686Z,9.50
2023-08-11T03:01:09.762Z,8.70
2023-08-11T03:01:30.839Z,9.70
2023-08-11T03:01:51.949Z,9.30
2023-08-11T03:02:13.070Z,10.10
2023-08-11T03:02:34.188Z,10.40
2023-08-11T03:02:55.282Z,9.70
2023-08-11T03:03:16.399Z,8.30
2023-08-11T03:03:37.506Z,7.00
2023-08-11T03:03:58.565Z,6.80
2023-08-11T03:04:19.669Z,9.00
2023-08-11T03:04:40.801Z,9.10
2023-08-11T03:05:01.868Z,9.60
2023-08-11T03:05:22.921Z,8.20
2023-08-11T03:05:43.985Z,7.50
2023-08-11T03:06:05.053Z,7.80
2023-08-11T03:06:26.116Z,7.40
2023-08-11T03:06:47.173Z,6.90
2023-08-11T03:07:08.246Z,7.10
2023-08-11T03:07:29.312Z,7.00
2023-08-11T03:07:50.380Z,8.50
2023-08-11T03:08:11.450Z,8.10
2023-08-11T03:08:32.539Z,8.50
2023-08-11T03:08:53.600Z,7.10
2023-08-11T03:09:14.642Z,6.60
2023-08-11T03:09:35.782Z,7.60
2023-08-11T03:09:57.014Z,8.30
2023-08-11T03:10:18.090Z,7.90
2023-08-11T03:10:47.048Z,6.40
2023-08-11T03:11:06.126Z,7.40
2023-08-11T03:11:27.200Z,7.50
2023-08-11T03:11:48.277Z,8.30
2023-08-11T03:12:09.577Z,7.80
2023-08-11T03:12:30.868Z,7.60
2023-08-11T03:12:51.949Z,8.20
2023-08-11T03:13:13.025Z,8.00
2023-08-11T03:13:34.093Z,6.90
2023-08-11T03:13:55.170Z,6.50
2023-08-11T03:14:16.231Z,6.50
2023-08-11T03:14:37.317Z,6.80
2023-08-11T03:14:58.436Z,8.40
2023-08-11T03:15:19.525Z,7.70
2023-08-11T03:15:40.592Z,8.40
2023-08-11T03:16:01.707Z,6.90
2023-08-11T03:16:22.745Z,6.40
2023-08-11T03:16:43.823Z,8.30
2023-08-11T03:17:04.880Z,7.10
2023-08-11T03:17:25.938Z,7.70
2023-08-11T03:17:47.054Z,7.40
2023-08-11T03:18:08.128Z,7.00
2023-08-11T03:18:29.167Z,7.20
2023-08-11T03:18:50.240Z,8.60
2023-08-11T03:19:11.270Z,8.40
2023-08-11T03:19:32.352Z,7.40
2023-08-11T03:19:53.459Z,8.00
2023-08-11T03:20:15.064Z,7.20
2023-08-11T03:20:36.118Z,9.10
2023-08-11T03:21:09.712Z,8.80
2023-08-11T03:21:24.160Z,6.50
2023-08-11T03:21:45.245Z,7.20
2023-08-11T03:22:06.856Z,7.90
2023-08-11T03:22:28.060Z,6.40
2023-08-11T03:22:49.126Z,8.20
2023-08-11T03:23:10.210Z,8.60
2023-08-11T03:23:31.270Z,7.30
2023-08-11T03:23:52.326Z,8.50
2023-08-11T03:24:14.762Z,7.40
2023-08-11T03:24:35.904Z,8.10
2023-08-11T03:24:57.223Z,7.10
2023-08-11T03:25:18.499Z,7.30
2023-08-11T03:25:39.569Z,7.20
2023-08-11T03:26:00.652Z,6.30
2023-08-11T03:26:21.701Z,6.00
2023-08-11T03:26:42.765Z,6.70
2023-08-11T03:27:03.835Z,6.60
2023-08-11T03:27:24.910Z,6.70
2023-08-11T03:27:45.989Z,6.20
2023-08-11T03:28:07.053Z,7.20
2023-08-11T03:28:28.120Z,8.30
2023-08-11T03:28:49.187Z,7.60
2023-08-11T03:29:10.252Z,6.70
2023-08-11T03:29:31.348Z,7.00
2023-08-11T03:29:52.403Z,6.80
2023-08-11T03:30:13.574Z,6.70
2023-08-11T03:30:34.642Z,7.10
2023-08-11T03:30:55.708Z,7.20
2023-08-11T03:31:16.772Z,8.40
2023-08-11T03:31:37.846Z,7.90
2023-08-11T03:31:58.961Z,6.00
2023-08-11T03:32:20.063Z,6.60
2023-08-11T03:32:41.257Z,7.30
2023-08-11T03:33:02.426Z,6.40
2023-08-11T03:33:23.534Z,7.80
2023-08-11T03:33:44.605Z,7.80
2023-08-11T03:34:05.671Z,7.50
2023-08-11T03:34:26.731Z,6.00
2023-08-11T03:34:47.786Z,6.70
2023-08-11T03:35:08.901Z,8.30
2023-08-11T03:35:30.149Z,7.30
2023-08-11T03:35:51.433Z,6.30
2023-08-11T03:36:12.499Z,6.80
2023-08-11T03:36:33.574Z,6.70
2023-08-11T03:36:54.650Z,6.80
2023-08-11T03:37:15.718Z,6.50
2023-08-11T03:37:36.801Z,6.10
2023-08-11T03:37:57.843Z,7.30
2023-08-11T03:38:18.908Z,7.50
2023-08-11T03:38:39.978Z,7.30
2023-08-11T03:39:01.037Z,6.20
2023-08-11T03:39:22.125Z,7.90
2023-08-11T03:39:43.182Z,9.40
2023-08-11T03:40:04.240Z,7.30
2023-08-11T03:40:25.299Z,7.40
2023-08-11T03:40:46.568Z,7.00
2023-08-11T03:41:07.728Z,6.70
2023-08-11T03:41:28.775Z,7.20
2023-08-11T03:41:49.831Z,7.10
2023-08-11T03:42:14.107Z,6.70
2023-08-11T03:42:35.464Z,6.80
2023-08-11T03:42:56.508Z,7.10
2023-08-11T03:43:17.573Z,7.30
2023-08-11T03:43:38.634Z,9.90
2023-08-11T03:43:59.700Z,8.00
2023-08-11T03:44:20.768Z,9.30
2023-08-11T03:44:41.850Z,8.00
2023-08-11T03:45:02.926Z,6.50
2023-08-11T03:45:24.028Z,6.80
2023-08-11T03:45:45.090Z,7.00
2023-08-11T03:46:06.219Z,6.70
2023-08-11T03:46:27.540Z,8.60
2023-08-11T03:46:48.732Z,8.20
2023-08-11T03:47:09.793Z,7.30
2023-08-11T03:47:30.876Z,6.80
2023-08-11T03:47:52.034Z,7.60
2023-08-11T03:48:13.097Z,7.60
2023-08-11T03:48:34.138Z,6.80
2023-08-11T03:48:55.207Z,7.90
2023-08-11T03:49:16.297Z,8.10
2023-08-11T03:49:37.369Z,18.70
2023-08-11T03:49:58.416Z,21.90
2023-08-11T03:50:19.486Z,18.80
2023-08-11T03:50:40.562Z,15.50
2023-08-11T03:51:01.617Z,9.80
2023-08-11T03:51:22.770Z,6.70
2023-08-11T03:51:43.844Z,8.10
2023-08-11T03:52:04.996Z,8.00
2023-08-11T03:52:26.068Z,6.40
2023-08-11T03:52:47.134Z,6.60
2023-08-11T03:53:08.214Z,8.00
2023-08-11T03:53:29.260Z,8.50
2023-08-11T03:53:50.318Z,7.10
2023-08-11T03:54:11.396Z,6.70
2023-08-11T03:54:44.600Z,7.30
2023-08-11T03:54:59.435Z,7.50
2023-08-11T03:55:20.502Z,7.50
2023-08-11T03:55:41.564Z,9.00
2023-08-11T03:56:02.631Z,7.80
2023-08-11T03:56:23.911Z,8.50
2023-08-11T03:56:45.213Z,7.20
2023-08-11T03:57:06.275Z,7.90
2023-08-11T03:57:27.322Z,7.70
2023-08-11T03:57:48.368Z,9.30
2023-08-11T03:58:09.455Z,7.90
2023-08-11T03:58:30.505Z,6.60
2023-08-11T03:58:51.606Z,6.80
2023-08-11T03:59:12.641Z,8.30
2023-08-11T03:59:33.706Z,8.60
2023-08-11T03:59:54.794Z,7.20
2023-08-11T04:00:16.056Z,7.60
2023-08-11T04:00:37.150Z,6.40
2023-08-11T04:00:58.244Z,6.40
2023-08-11T04:01:19.345Z,7.50
2023-08-11T04:01:40.625Z,7.70
2023-08-11T04:02:01.913Z,7.00
2023-08-11T04:02:22.954Z,7.80
2023-08-11T04:02:44.051Z,9.00
2023-08-11T04:03:05.189Z,7.40
2023-08-11T04:03:26.405Z,7.70
2023-08-11T04:03:47.484Z,7.90
2023-08-11T04:04:08.553Z,7.30
2023-08-11T04:04:29.624Z,7.90
2023-08-11T04:04:50.671Z,7.50
2023-08-11T04:05:11.729Z,6.60
2023-08-11T04:05:32.788Z,7.20
2023-08-11T04:05:53.848Z,7.10
2023-08-11T04:06:14.916Z,6.80
2023-08-11T04:06:35.974Z,7.30
2023-08-11T04:06:57.068Z,7.40
2023-08-11T04:07:18.207Z,7.50
2023-08-11T04:07:39.268Z,8.60
2023-08-11T04:08:00.330Z,8.10
2023-08-11T04:08:21.399Z,7.40
2023-08-11T04:08:42.450Z,6.30
2023-08-11T04:09:03.536Z,7.20
2023-08-11T04:09:24.580Z,8.30
2023-08-11T04:09:45.643Z,7.70
2023-08-11T04:10:06.737Z,9.40
2023-08-11T04:10:27.787Z,8.70
2023-08-11T04:10:48.837Z,6.90
2023-08-11T04:11:09.904Z,7.30
2023-08-11T04:11:31.010Z,6.80
2023-08-11T04:11:52.106Z,7.50
2023-08-11T04:12:13.377Z,9.00
2023-08-11T04:12:34.494Z,7.60
2023-08-11T04:12:55.589Z,8.50
2023-08-11T04:13:16.639Z,7.90
2023-08-11T04:13:37.694Z,8.20
2023-08-11T04:13:58.768Z,9.30
2023-08-11T04:14:19.841Z,8.80
2023-08-11T04:14:40.981Z,8.10
2023-08-11T04:15:02.024Z,7.70
2023-08-11T04:15:23.121Z,7.10
2023-08-11T04:15:44.155Z,6.60
2023-08-11T04:16:05.225Z,6.80
2023-08-11T04:16:26.342Z,7.40
2023-08-11T04:16:47.388Z,7.80
2023-08-11T04:17:08.438Z,8.20
2023-08-11T04:17:29.565Z,8.90
2023-08-11T04:17:50.724Z,8.10
2023-08-11T04:18:11.820Z,6.80
2023-08-11T04:18:32.846Z,7.10
2023-08-11T04:18:53.917Z,7.80
2023-08-11T04:19:14.971Z,7.20
2023-08-11T04:19:36.057Z,8.10
2023-08-11T04:19:57.100Z,8.10
2023-08-11T04:20:18.174Z,8.50
2023-08-11T04:20:39.280Z,8.50
2023-08-11T04:21:00.307Z,6.80
2023-08-11T04:21:21.388Z,7.70
2023-08-11T04:21:42.447Z,6.70
2023-08-11T04:22:03.506Z,7.30
2023-08-11T04:22:38.205Z,8.20
2023-08-11T04:22:51.635Z,7.30
2023-08-11T04:23:12.755Z,8.50
2023-08-11T04:23:33.816Z,8.60
2023-08-11T04:23:56.834Z,8.10
2023-08-11T04:24:19.800Z,7.60
2023-08-11T04:24:40.870Z,6.90
2023-08-11T04:25:01.932Z,6.30
2023-08-11T04:25:22.994Z,7.70
2023-08-11T04:25:44.052Z,7.20
2023-08-11T04:26:05.130Z,7.40
2023-08-11T04:26:26.192Z,7.40
2023-08-11T04:26:47.249Z,6.80
2023-08-11T04:27:08.317Z,6.80
2023-08-11T04:27:29.382Z,6.30
2023-08-11T04:27:50.471Z,6.70
2023-08-11T04:28:11.570Z,6.90
2023-08-11T04:28:32.850Z,6.90
2023-08-11T04:28:53.923Z,7.00
2023-08-11T04:29:15.015Z,7.70
2023-08-11T04:29:36.084Z,7.80
2023-08-11T04:29:57.139Z,7.50
2023-08-11T04:30:18.191Z,8.60
2023-08-11T04:30:39.306Z,9.00
2023-08-11T04:31:00.444Z,7.80
2023-08-11T04:31:21.483Z,8.40
2023-08-11T04:31:42.546Z,7.70
2023-08-11T04:32:03.605Z,7.30
2023-08-11T04:32:24.677Z,6.90
2023-08-11T04:32:45.862Z,6.60
2023-08-11T04:33:07.114Z,7.60
2023-08-11T04:33:28.311Z,7.70
2023-08-11T04:33:49.573Z,7.50
2023-08-11T04:34:10.630Z,7.90
2023-08-11T04:34:31.690Z,9.10
2023-08-11T04:34:52.774Z,7.80
2023-08-11T04:35:13.825Z,8.10
2023-08-11T04:35:34.887Z,8.70
2023-08-11T04:35:55.956Z,8.10
2023-08-11T04:36:17.020Z,7.50
2023-08-11T04:36:38.072Z,7.70
2023-08-11T04:36:59.130Z,7.80
2023-08-11T04:37:20.211Z,7.60
2023-08-11T04:37:41.263Z,7.90
2023-08-11T04:38:02.314Z,6.60
2023-08-11T04:38:23.381Z,8.20
2023-08-11T04:38:44.700Z,7.90
2023-08-11T04:39:05.800Z,6.50
2023-08-11T04:39:26.836Z,8.20
2023-08-11T04:39:47.909Z,7.50
2023-08-11T04:40:08.980Z,8.00
2023-08-11T04:40:30.044Z,7.00
2023-08-11T04:40:51.102Z,7.70
2023-08-11T04:41:12.168Z,7.70
2023-08-11T04:41:33.248Z,8.30
2023-08-11T04:41:54.294Z,9.20